createdAt,value
2022-10-28T00:05:00.336Z,3.80
2022-10-28T00:10:02.424Z,3.17
2022-10-28T00:15:05.246Z,3.10
2022-10-28T00:20:07.905Z,2.78
2022-10-28T00:30:12.868Z,3.55
2022-10-28T00:35:15.041Z,3.35
2022-10-28T00:40:17.243Z,4.12
2022-10-28T00:45:19.460Z,4.03
2022-10-28T00:50:40.352Z,5.43
2022-10-28T00:55:44.397Z,4.37
2022-10-28T01:00:46.674Z,3.72
2022-10-28T01:05:50.801Z,4.22
2022-10-28T01:11:14.122Z,4.18
2022-10-28T01:16:41.154Z,3.08
2022-10-28T01:22:06.060Z,3.67
2022-10-28T01:27:26.543Z,3.35
2022-10-28T01:32:41.881Z,3.90
2022-10-28T01:37:57.969Z,4.70
2022-10-28T01:43:22.268Z,4.93
2022-10-28T01:53:41.971Z,4.75
2022-10-28T01:58:44.637Z,4.15
2022-10-28T02:09:00.069Z,5.25
2022-10-28T02:14:05.184Z,4.37
2022-10-28T02:19:37.875Z,4.22
2022-10-28T02:25:00.989Z,4.15
2022-10-28T02:30:08.629Z,3.85
2022-10-28T02:35:17.268Z,4.15
2022-10-28T02:40:24.799Z,4.82
2022-10-28T02:45:39.292Z,4.82
2022-10-28T02:50:53.552Z,5.32
2022-10-28T02:55:59.508Z,5.57
2022-10-28T03:01:01.610Z,5.25
2022-10-28T03:06:03.782Z,4.55
2022-10-28T03:11:05.966Z,4.37
2022-10-28T03:16:08.096Z,4.78
2022-10-28T03:21:10.160Z,4.30
2022-10-28T03:26:12.428Z,4.50
2022-10-28T03:31:15.497Z,5.82
2022-10-28T03:36:17.691Z,4.60
2022-10-28T03:41:20.027Z,4.47
2022-10-28T03:46:22.280Z,4.35
2022-10-28T03:51:24.425Z,5.00
2022-10-28T03:56:26.553Z,5.25
2022-10-28T04:01:28.704Z,4.07
2022-10-28T04:06:30.840Z,5.03
2022-10-28T04:11:32.918Z,3.72
2022-10-28T04:16:35.046Z,3.78
2022-10-28T04:21:37.242Z,3.65
2022-10-28T04:26:39.515Z,3.55
2022-10-28T04:31:41.655Z,4.43
2022-10-28T04:36:43.740Z,4.90
2022-10-28T04:41:46.021Z,5.87
2022-10-28T04:46:48.112Z,4.07
2022-10-28T04:51:50.373Z,4.55
2022-10-28T04:56:54.489Z,4.65
2022-10-28T05:01:56.685Z,3.65
2022-10-28T05:06:58.833Z,4.60
2022-10-28T05:12:00.919Z,5.50
2022-10-28T05:17:03.082Z,3.17
2022-10-28T05:22:05.252Z,4.55
2022-10-28T05:27:07.495Z,3.87
2022-10-28T05:32:09.529Z,4.10
2022-10-28T05:37:11.714Z,4.90
2022-10-28T05:42:14.205Z,4.57
2022-10-28T05:47:16.359Z,4.80
2022-10-28T05:52:18.450Z,6.07
2022-10-28T05:57:20.509Z,4.20
2022-10-28T06:02:22.539Z,5.00
2022-10-28T06:07:24.616Z,4.45
2022-10-28T06:12:25.333Z,5.07
2022-10-28T06:17:27.548Z,4.62
2022-10-28T06:22:30.087Z,4.15
2022-10-28T06:27:32.159Z,5.40
2022-10-28T06:32:34.297Z,4.15
2022-10-28T06:37:36.460Z,5.22
2022-10-28T06:42:38.581Z,5.68
2022-10-28T06:47:42.245Z,5.70
2022-10-28T06:57:52.998Z,4.20
2022-10-28T07:07:58.568Z,3.93
2022-10-28T07:13:00.684Z,4.15
2022-10-28T07:18:02.883Z,4.53
2022-10-28T07:23:04.953Z,5.53
2022-10-28T07:28:07.097Z,4.93
2022-10-28T07:33:09.127Z,4.70
2022-10-28T07:38:11.747Z,5.12
2022-10-28T07:48:16.321Z,4.87
2022-10-28T07:53:18.383Z,5.20
2022-10-28T07:58:20.464Z,4.90
2022-10-28T08:03:31.095Z,4.70
2022-10-28T08:08:37.625Z,6.07
2022-10-28T08:13:40.438Z,5.53
2022-10-28T08:18:42.810Z,5.70
2022-10-28T08:23:46.828Z,5.50
2022-10-28T08:28:49.101Z,5.43
2022-10-28T08:33:51.200Z,4.20
2022-10-28T08:38:53.337Z,5.30
2022-10-28T08:44:04.342Z,7.53
2022-10-28T08:49:14.464Z,8.02
2022-10-28T08:54:24.763Z,4.75
2022-10-28T08:59:36.106Z,3.72
2022-10-28T09:04:41.880Z,4.18
2022-10-28T09:09:45.434Z,4.75
2022-10-28T09:14:54.688Z,4.40
2022-10-28T09:20:02.118Z,4.82
2022-10-28T09:25:23.480Z,5.22
2022-10-28T09:30:56.094Z,7.32
2022-10-28T09:35:58.946Z,6.45
2022-10-28T09:41:14.676Z,6.03
2022-10-28T09:46:18.912Z,5.85
2022-10-28T09:51:27.743Z,4.10
2022-10-28T09:56:30.723Z,4.47
2022-10-28T10:01:38.245Z,4.35
2022-10-28T10:06:42.760Z,4.55
2022-10-28T10:11:47.854Z,4.32
2022-10-28T10:17:02.621Z,4.05
2022-10-28T10:22:04.855Z,5.28
2022-10-28T10:27:09.915Z,5.20
2022-10-28T10:32:22.897Z,4.95
2022-10-28T10:37:25.520Z,4.55
2022-10-28T10:42:27.927Z,4.75
2022-10-28T10:47:30.424Z,4.55
2022-10-28T10:57:35.275Z,4.62
2022-10-28T11:02:39.749Z,4.20
2022-10-28T11:07:49.093Z,5.22
2022-10-28T11:12:57.531Z,4.18
2022-10-28T11:18:08.704Z,4.03
2022-10-28T11:23:19.719Z,4.28
2022-10-28T11:28:33.354Z,4.03
2022-10-28T11:34:09.549Z,3.95
2022-10-28T11:39:11.666Z,3.92
2022-10-28T11:44:43.259Z,4.37
2022-10-28T11:50:02.755Z,4.10
2022-10-28T11:55:30.726Z,3.78
2022-10-28T12:00:47.861Z,4.65
2022-10-28T12:06:11.500Z,3.12
2022-10-28T12:11:33.229Z,4.50
2022-10-28T12:16:54.512Z,3.35
2022-10-28T12:22:05.871Z,3.53
2022-10-28T12:27:20.638Z,3.47
2022-10-28T12:32:29.468Z,3.62
2022-10-28T12:37:48.710Z,3.15
2022-10-28T12:42:59.588Z,3.42
2022-10-28T12:48:15.378Z,3.78
2022-10-28T12:53:35.840Z,3.97
2022-10-28T12:58:58.019Z,3.17
2022-10-28T13:04:01.283Z,3.20
2022-10-28T13:09:26.388Z,2.17
2022-10-28T13:14:50.722Z,4.03
2022-10-28T13:20:41.442Z,3.70
2022-10-28T13:25:50.719Z,2.72
2022-10-28T13:30:59.440Z,3.55
2022-10-28T13:36:38.670Z,3.17
2022-10-28T13:41:44.752Z,3.87
2022-10-28T13:46:59.351Z,3.30
2022-10-28T13:52:04.446Z,3.95
2022-10-28T13:57:13.450Z,3.60
2022-10-28T14:02:35.582Z,3.40
2022-10-28T14:07:58.572Z,3.53
2022-10-28T14:13:05.511Z,3.72
2022-10-28T14:18:42.585Z,2.67
2022-10-28T14:23:45.288Z,3.67
2022-10-28T14:33:54.135Z,3.67
2022-10-28T14:44:41.489Z,3.30
2022-10-28T14:50:01.839Z,3.20
2022-10-28T14:55:08.122Z,3.42
2022-10-28T15:00:18.826Z,3.37
2022-10-28T15:05:29.818Z,3.95
2022-10-28T15:10:33.943Z,3.05
2022-10-28T15:15:36.010Z,3.00
2022-10-28T15:20:38.155Z,4.78
2022-10-28T15:25:40.253Z,3.78
2022-10-28T15:30:46.781Z,3.60
2022-10-28T15:35:49.218Z,4.43
2022-10-28T15:40:51.802Z,3.80
2022-10-28T15:45:54.683Z,3.25
2022-10-28T15:51:23.426Z,2.87
2022-10-28T15:56:29.700Z,3.83
2022-10-28T16:01:35.009Z,3.55
2022-10-28T16:06:37.394Z,3.80
2022-10-28T16:11:43.741Z,2.78
2022-10-28T16:16:45.995Z,2.53
2022-10-28T16:21:48.147Z,3.22
2022-10-28T16:26:50.295Z,3.17
2022-10-28T16:31:52.783Z,2.87
2022-10-28T16:36:55.068Z,3.60
2022-10-28T16:41:57.594Z,3.30
2022-10-28T16:46:59.672Z,3.47
2022-10-28T16:52:02.958Z,3.12
2022-10-28T16:57:05.023Z,4.20
2022-10-28T17:02:23.953Z,3.45
2022-10-28T17:07:27.410Z,3.70
2022-10-28T17:12:29.592Z,2.45
2022-10-28T17:17:31.709Z,3.58
2022-10-28T17:22:33.943Z,2.42
2022-10-28T17:27:36.085Z,3.60
2022-10-28T17:32:38.147Z,3.25
2022-10-28T17:37:40.280Z,4.55
2022-10-28T17:42:42.423Z,2.92
2022-10-28T17:47:44.611Z,3.58
2022-10-28T17:52:46.705Z,3.35
2022-10-28T17:57:48.769Z,3.80
2022-10-28T18:02:54.858Z,3.50
2022-10-28T18:07:57.258Z,4.00
2022-10-28T18:18:01.668Z,5.10
2022-10-28T18:23:04.112Z,5.35
2022-10-28T18:28:06.327Z,3.75
2022-10-28T18:33:08.464Z,4.55
2022-10-28T18:38:10.569Z,3.92
2022-10-28T18:43:12.698Z,4.18
2022-10-28T18:48:14.904Z,3.58
2022-10-28T18:53:17.001Z,4.93
2022-10-28T18:58:19.121Z,6.82
2022-10-28T19:03:23.022Z,5.90
2022-10-28T19:08:25.145Z,6.15
2022-10-28T19:13:27.427Z,4.80
2022-10-28T19:18:30.381Z,5.62
2022-10-28T19:23:34.245Z,5.68
2022-10-28T19:28:41.080Z,5.80
2022-10-28T19:33:44.389Z,5.30
2022-10-28T19:38:48.354Z,4.18
2022-10-28T19:43:58.483Z,4.93
2022-10-28T19:49:05.839Z,4.00
2022-10-28T19:54:11.329Z,4.72
2022-10-28T19:59:13.787Z,4.57
2022-10-28T20:04:17.412Z,4.20
2022-10-28T20:09:19.481Z,4.40
2022-10-28T20:14:21.738Z,6.07
2022-10-28T20:19:23.923Z,5.95
2022-10-28T20:24:26.412Z,5.05
2022-10-28T20:29:28.631Z,4.25
2022-10-28T20:34:30.710Z,4.20
2022-10-28T20:39:32.798Z,5.40
2022-10-28T20:44:34.954Z,6.43
2022-10-28T20:49:39.091Z,5.62
2022-10-28T20:54:41.567Z,5.70
2022-10-28T20:59:43.693Z,5.82
2022-10-28T21:04:45.917Z,5.57
2022-10-28T21:09:49.491Z,5.87
2022-10-28T21:14:51.984Z,5.68
2022-10-28T21:19:54.225Z,5.50
2022-10-28T21:24:56.418Z,4.57
2022-10-28T21:29:58.580Z,5.35
2022-10-28T21:35:00.699Z,5.72
2022-10-28T21:40:02.896Z,4.43
2022-10-28T21:45:07.532Z,5.97
2022-10-28T21:50:09.723Z,4.90
2022-10-28T21:55:20.571Z,4.70
2022-10-28T22:00:33.923Z,4.68
2022-10-28T22:05:36.456Z,5.55
2022-10-28T22:10:38.538Z,5.28
2022-10-28T22:15:40.652Z,4.15
2022-10-28T22:20:42.704Z,4.97
2022-10-28T22:25:44.955Z,4.93
2022-10-28T22:30:47.002Z,5.90
2022-10-28T22:35:59.494Z,4.95
2022-10-28T22:41:14.731Z,8.07
2022-10-28T22:46:17.002Z,8.63
2022-10-28T22:51:20.136Z,7.30
2022-10-28T22:56:24.198Z,5.22
2022-10-28T23:01:28.224Z,4.30
2022-10-28T23:06:30.550Z,5.12
2022-10-28T23:11:32.731Z,5.43
2022-10-28T23:16:34.832Z,4.87
2022-10-28T23:21:36.962Z,3.70
2022-10-28T23:26:39.088Z,4.43
2022-10-28T23:31:41.186Z,3.78
2022-10-28T23:36:43.298Z,4.00
2022-10-28T23:41:45.349Z,4.30
2022-10-28T23:46:47.482Z,3.45
2022-10-28T23:51:50.057Z,4.65
2022-10-28T23:56:52.283Z,4.57
